Sea Thames — V2BV1 — position and weather

sailwx.info

Track history (hours):
 
Tides and Currents Weather Stations Pressure Air Temp Water Temp Dewpoint Dewpoint Depression Visibility Wind Speed Wind Dir Waves Ship Positions

Sea Thames

Last reported at 2017-Apr-22 08:31 UTC. Time now 2017-Apr-24 15:23 UTC.
Position N 46°27' W 004°45'.

Length 87 m; draft 4 m.

Type: Cargo ship. MMSI: 304933000.

Date/timePositionNaut miles runAvg speedWind from/ knotsBaromVisibWave heightAir tempDewpointWater temp
2017-Apr-22 08:31N 46°27' W 004°45'1 8.6
2017-Apr-22 08:27N 46°27' W 004°45'4 8.5
2017-Apr-22 08:00N 46°31' W 004°47'4 8.6
2017-Apr-22 07:30N 46°35' W 004°49'4 8.7
2017-Apr-22 07:00N 46°39' W 004°51'4 8.5
2017-Apr-22 06:31N 46°43' W 004°53'4 8.6
2017-Apr-22 06:00N 46°47' W 004°56'4 8.6
2017-Apr-22 05:30N 46°51' W 004°58'4 8.9
2017-Apr-22 05:00N 46°55' W 005°00'4 8.9
2017-Apr-22 04:30N 46°59' W 005°03'15 9.0
2017-Apr-22 02:52N 47°13' W 005°11'22 9.3
2017-Apr-22 00:30N 47°34' W 005°22'8 9.1
2017-Apr-21 23:39N 47°41' W 005°25'4 8.9
2017-Apr-21 23:12N 47°45' W 005°27'2 8.8
2017-Apr-21 23:00N 47°46' W 005°28'9 8.4
2017-Apr-21 21:53N 47°55' W 005°33'8 8.3
2017-Apr-21 20:56N 48°03' W 005°37'28 8.6
2017-Apr-21 17:38N 48°29' W 005°54'9 9.3
2017-Apr-21 16:38N 48°38' W 005°56'4 9.2
2017-Apr-21 16:11N 48°42' W 005°55'5 9.6
2017-Apr-21 15:38N 48°47' W 005°51'3 9.4
2017-Apr-21 15:16N 48°50' W 005°49'4 9.3
2017-Apr-21 14:53N 48°53' W 005°46'7 9.2
2017-Apr-21 14:07N 48°57' W 005°38'106 9.1
2017-Apr-21 02:26N 49°51' W 003°18'4 8.6
2017-Apr-21 02:00N 49°53' W 003°13'7 8.6
2017-Apr-21 01:11N 49°57' W 003°04'4 8.7
2017-Apr-21 00:46N 49°59' W 002°59'3 8.8
2017-Apr-21 00:27N 50°00' W 002°55'104 9.3
2017-Apr-20 13:18N 50°28' W 000°19'2 8.3
2017-Apr-20 13:00N 50°29' W 000°15'4 8.5
2017-Apr-20 12:30N 50°30' W 000°09'4 8.8
2017-Apr-20 12:00N 50°31' W 000°02'5 9.1
2017-Apr-20 11:31N 50°33' E 000°04'5 9.3
2017-Apr-20 11:00N 50°34' E 000°12'5 9.6
2017-Apr-20 10:30N 50°35' E 000°19'5 9.8
2017-Apr-20 10:00N 50°37' E 000°26'5 9.8
2017-Apr-20 09:30N 50°38' E 000°33'5 9.7
2017-Apr-20 09:01N 50°41' E 000°40'5 9.5
2017-Apr-20 08:29N 50°44' E 000°46'21 8.8
2017-Apr-20 06:06N 50°57' E 001°12'1 8.2
2017-Apr-20 06:00N 50°57' E 001°13'4 7.9
2017-Apr-20 05:28N 50°60' E 001°19'4 7.7
2017-Apr-20 05:00N 51°02' E 001°23'4 7.8
2017-Apr-20 04:30N 51°05' E 001°28'4 8.4
2017-Apr-20 04:00N 51°07' E 001°33'4 8.9
2017-Apr-20 03:31N 51°10' E 001°38'5 9.1
2017-Apr-20 03:00N 51°13' E 001°44'5 9.5
2017-Apr-20 02:30N 51°17' E 001°47'510.1
2017-Apr-20 02:01N 51°22' E 001°51'510.2
2017-Apr-20 01:31N 51°26' E 001°56'510.1
2017-Apr-20 01:00N 51°30' E 002°01'261 8.3
2017-Apr-18 17:25N 53°51' E 008°03'4 9.6
2017-Apr-18 16:59N 53°48' E 008°08'5 9.3
2017-Apr-18 16:30N 53°45' E 008°13'4 8.3
2017-Apr-18 16:00N 53°42' E 008°19'4 7.6
2017-Apr-18 15:30N 53°40' E 008°24'4 7.1
2017-Apr-18 15:00N 53°37' E 008°28'3 6.9
2017-Apr-18 14:30N 53°35' E 008°32'5 5.0
2017-Apr-18 13:30N 53°30' E 008°30'3 6.0
2017-Apr-18 13:00N 53°27' E 008°29'3 6.7
2017-Apr-18 12:30N 53°23' E 008°30'2 3.8
2017-Apr-18 11:58N 53°21' E 008°30'0 0.0
2017-Apr-18 11:11N 53°21' E 008°30'0 0.0
2017-Apr-18 10:59N 53°21' E 008°30'0 0.0
2017-Apr-18 10:29N 53°21' E 008°30'0 0.0
2017-Apr-18 09:58N 53°21' E 008°30'0 0.0
2017-Apr-18 09:29N 53°21' E 008°30'0 0.0
2017-Apr-18 08:59N 53°21' E 008°30'0 0.0
2017-Apr-18 08:28N 53°21' E 008°30'0 0.0
2017-Apr-18 07:58N 53°21' E 008°30'0 0.0
2017-Apr-18 07:29N 53°21' E 008°30'0 0.0
2017-Apr-18 06:59N 53°21' E 008°30'0 0.0
2017-Apr-18 06:28N 53°21' E 008°30'0 0.0
2017-Apr-18 06:00N 53°21' E 008°30'0 0.0
2017-Apr-18 05:24N 53°21' E 008°30'0 0.0
2017-Apr-18 04:57N 53°21' E 008°30'0 0.0
2017-Apr-18 04:25N 53°21' E 008°30'0 0.0
2017-Apr-18 03:58N 53°21' E 008°30'0 0.0
2017-Apr-18 03:23N 53°21' E 008°30'0 0.0
2017-Apr-18 02:59N 53°21' E 008°30'0 0.0
2017-Apr-18 02:29N 53°21' E 008°30'0 0.0
2017-Apr-18 02:00N 53°21' E 008°30'0 0.0
2017-Apr-18 01:30N 53°21' E 008°30'0 0.0
2017-Apr-18 00:56N 53°21' E 008°30'0 0.0
2017-Apr-18 00:29N 53°21' E 008°30'0 0.0
2017-Apr-17 23:59N 53°21' E 008°30'0 0.0
2017-Apr-17 23:28N 53°21' E 008°30'0 0.0
2017-Apr-17 22:58N 53°21' E 008°30'0 0.0
2017-Apr-17 22:23N 53°21' E 008°30'0 0.0
2017-Apr-17 21:59N 53°21' E 008°30'0 0.0
2017-Apr-17 21:29N 53°21' E 008°30'0 0.0
2017-Apr-17 20:57N 53°21' E 008°30'0 0.0
2017-Apr-17 20:29N 53°21' E 008°30'0 0.0
2017-Apr-17 19:58N 53°21' E 008°30'0 0.0
2017-Apr-17 19:29N 53°21' E 008°30'0 0.0
2017-Apr-17 18:56N 53°21' E 008°30'0 0.0
2017-Apr-17 18:29N 53°21' E 008°30'0 0.0
2017-Apr-17 17:55N 53°21' E 008°30'0 0.0
2017-Apr-17 17:28N 53°21' E 008°30'0 0.0
2017-Apr-17 17:00N 53°21' E 008°30'0 0.0
2017-Apr-17 16:28N 53°21' E 008°30'0 0.0
2017-Apr-17 15:55N 53°21' E 008°30'0 0.0
2017-Apr-17 15:30N 53°21' E 008°30'0 0.0
2017-Apr-17 14:58N 53°21' E 008°30'0 0.0
2017-Apr-17 14:30N 53°21' E 008°30'0 0.0
2017-Apr-17 13:29N 53°21' E 008°30'0 0.0
2017-Apr-17 12:57N 53°21' E 008°30'0 0.0
2017-Apr-17 12:27N 53°21' E 008°30'0 0.0
2017-Apr-17 12:00N 53°21' E 008°30'0 0.0
2017-Apr-17 11:31N 53°21' E 008°30'0 0.4
2017-Apr-17 11:00N 53°22' E 008°30'4 8.3
2017-Apr-17 10:30N 53°26' E 008°29'4 7.8
2017-Apr-17 10:00N 53°30' E 008°30'4 7.1
2017-Apr-17 09:30N 53°32' E 008°34'4 7.2
2017-Apr-17 09:00N 53°35' E 008°31'3 6.6
2017-Apr-17 08:30N 53°38' E 008°27'4 7.1
2017-Apr-17 08:00N 53°40' E 008°23'3 5.2
2017-Apr-17 07:30N 53°42' E 008°20'3 6.3
2017-Apr-17 07:00N 53°44' E 008°15'3 6.0
2017-Apr-17 06:30N 53°45' E 008°11'3 5.2
2017-Apr-17 06:00N 53°47' E 008°08'3 5.7
2017-Apr-17 05:30N 53°50' E 008°05'107 7.9
2017-Apr-16 15:59N 54°38' E 005°22'4 7.9
2017-Apr-16 15:29N 54°39' E 005°15'4 7.9
2017-Apr-16 14:59N 54°40' E 005°09'4 8.1
2017-Apr-16 14:30N 54°41' E 005°02'249 8.4
2017-Apr-15 08:47N 55°59' W 001°53'3 8.7
2017-Apr-15 08:29N 56°00' W 001°57'4 8.7
2017-Apr-15 08:00N 56°01' W 002°05'4 8.9
2017-Apr-15 07:30N 56°03' W 002°12'5 9.2
2017-Apr-15 07:00N 56°04' W 002°20'5 9.2
2017-Apr-15 06:30N 56°06' W 002°28'5 9.6
2017-Apr-15 06:00N 56°06' W 002°36'5 9.5
2017-Apr-15 05:30N 56°06' W 002°45'4 8.9
2017-Apr-15 05:00N 56°05' W 002°53'4 8.5
2017-Apr-15 04:30N 56°05' W 003°00'4 7.5
2017-Apr-15 04:00N 56°05' W 003°07'2 3.8
2017-Apr-15 03:29N 56°07' W 003°09'0 0.0
2017-Apr-15 02:58N 56°07' W 003°09'0 0.0
2017-Apr-15 02:20N 56°07' W 003°09'0 0.0
2017-Apr-15 01:56N 56°07' W 003°09'0 0.0
2017-Apr-15 01:26N 56°07' W 003°09'0 0.0
2017-Apr-15 00:58N 56°07' W 003°09'0 0.0
2017-Apr-15 00:21N 56°07' W 003°09'0 0.0
2017-Apr-14 23:57N 56°07' W 003°09'0 0.0
2017-Apr-14 23:27N 56°07' W 003°09'0 0.0
2017-Apr-14 22:57N 56°07' W 003°09'0 0.0
2017-Apr-14 22:23N 56°07' W 003°09'0 0.0
2017-Apr-14 21:59N 56°07' W 003°09'0 0.0
2017-Apr-14 21:23N 56°07' W 003°09'0 0.0
2017-Apr-14 20:53N 56°07' W 003°09'0 0.0
2017-Apr-14 20:29N 56°07' W 003°09'0 0.0
2017-Apr-14 19:59N 56°07' W 003°09'0 0.0
2017-Apr-14 19:23N 56°07' W 003°09'0 0.0
2017-Apr-14 18:59N 56°07' W 003°09'0 0.0
2017-Apr-14 18:28N 56°07' W 003°09'0 0.0
2017-Apr-14 17:46N 56°07' W 003°09'0 0.0
2017-Apr-14 17:28N 56°07' W 003°09'0 0.0
2017-Apr-14 16:58N 56°07' W 003°09'0 0.0
2017-Apr-14 16:28N 56°07' W 003°09'0 0.0
2017-Apr-14 15:52N 56°07' W 003°09'0 0.0
2017-Apr-14 15:28N 56°07' W 003°09'0 0.0
2017-Apr-14 14:58N 56°07' W 003°09'0 0.0
2017-Apr-14 14:26N 56°07' W 003°09'0 0.0
2017-Apr-14 13:13N 56°07' W 003°09'0 0.0
2017-Apr-14 12:55N 56°07' W 003°09'0 0.0
2017-Apr-14 12:25N 56°07' W 003°09'0 0.0
2017-Apr-14 11:55N 56°07' W 003°09'0 0.0
2017-Apr-14 11:28N 56°07' W 003°09'0 0.0
2017-Apr-14 10:57N 56°07' W 003°09'0 0.0
2017-Apr-14 10:27N 56°07' W 003°09'0 0.0
2017-Apr-14 09:57N 56°07' W 003°09'0 0.0
2017-Apr-14 09:21N 56°07' W 003°09'0 0.0
2017-Apr-14 08:57N 56°07' W 003°09'0 0.0
2017-Apr-14 08:26N 56°07' W 003°09'0 0.0
2017-Apr-14 07:44N 56°07' W 003°09'0 0.0
2017-Apr-14 07:20N 56°07' W 003°09'0 0.0
2017-Apr-14 06:56N 56°07' W 003°09'0 0.0
2017-Apr-14 06:20N 56°07' W 003°09'0 0.0
2017-Apr-14 05:50N 56°07' W 003°09'0 0.0
2017-Apr-14 05:26N 56°07' W 003°09'0 0.0
2017-Apr-14 04:56N 56°07' W 003°09'0 0.0
2017-Apr-14 04:14N 56°07' W 003°09'0 0.0
2017-Apr-14 03:50N 56°07' W 003°09'0 0.0
2017-Apr-14 03:26N 56°07' W 003°09'0 0.0
2017-Apr-14 02:55N 56°07' W 003°09'0 0.0
2017-Apr-14 02:25N 56°07' W 003°09'0 0.0
2017-Apr-14 01:49N 56°07' W 003°09'0 0.0
2017-Apr-14 01:25N 56°07' W 003°09'0 0.0
2017-Apr-14 00:55N 56°07' W 003°09'0 0.0
2017-Apr-14 00:25N 56°07' W 003°09'0 0.0
2017-Apr-13 23:49N 56°07' W 003°09'0 0.0
2017-Apr-13 23:25N 56°07' W 003°09'0 0.0
2017-Apr-13 22:55N 56°07' W 003°09'0 0.0
2017-Apr-13 22:25N 56°07' W 003°09'0 0.0
2017-Apr-13 22:00N 56°07' W 003°09'0 0.0
2017-Apr-13 21:30N 56°07' W 003°09'0 0.0
2017-Apr-13 21:00N 56°07' W 003°09'0 0.0
2017-Apr-13 20:30N 56°07' W 003°09'0 0.0
2017-Apr-13 20:00N 56°07' W 003°09'0 0.0
2017-Apr-13 19:30N 56°07' W 003°09'0 0.0
2017-Apr-13 18:48N 56°07' W 003°09'0 0.0
2017-Apr-13 18:30N 56°07' W 003°09'0 0.0
2017-Apr-13 17:54N 56°07' W 003°09'0 0.0
2017-Apr-13 17:30N 56°07' W 003°09'0 0.0
2017-Apr-13 17:00N 56°07' W 003°09'0 0.0
2017-Apr-13 16:30N 56°07' W 003°09'0 0.0
2017-Apr-13 16:00N 56°07' W 003°09'0 0.2
2017-Apr-13 15:30N 56°07' W 003°09'1 1.8
2017-Apr-13 15:00N 56°06' W 003°08'3 5.4
2017-Apr-13 14:30N 56°06' W 003°03'7 6.6
2017-Apr-13 13:30N 56°06' W 002°51'1 2.3
2017-Apr-13 13:00N 56°06' W 002°49'1 2.2
2017-Apr-13 12:30N 56°06' W 002°47'1 2.2
2017-Apr-13 12:00N 56°06' W 002°45'1 2.1
2017-Apr-13 11:30N 56°06' W 002°43'1 2.2
2017-Apr-13 11:00N 56°06' W 002°41'1 1.7
2017-Apr-13 10:30N 56°06' W 002°40'1 2.0
2017-Apr-13 10:00N 56°06' W 002°38'3 6.8
2017-Apr-13 09:30N 56°06' W 002°32'4 7.6
2017-Apr-13 09:00N 56°04' W 002°26'4 7.5
2017-Apr-13 08:30N 56°03' W 002°20'4 7.6
2017-Apr-13 08:00N 56°01' W 002°14'4 7.6
2017-Apr-13 07:30N 55°59' W 002°08'8 6.8
2017-Apr-13 06:20N 55°56' W 001°55'3 6.6
2017-Apr-13 05:52N 55°54' W 001°50'28 6.8
2017-Apr-13 01:45N 55°34' W 001°16'3 7.5
2017-Apr-13 01:25N 55°32' W 001°14'66 8.2
2017-Apr-12 17:28N 54°37' W 000°12'3 7.2
2017-Apr-12 17:00N 54°34' W 000°09'4 7.0
2017-Apr-12 16:30N 54°31' W 000°05'3 7.0
2017-Apr-12 16:00N 54°28' W 000°02'4 7.0
2017-Apr-12 15:30N 54°25' E 000°01'4 7.3
2017-Apr-12 15:00N 54°22' E 000°04'8 7.8
2017-Apr-12 13:59N 54°15' E 000°12'4 8.5
2017-Apr-12 13:29N 54°12' E 000°16'5 8.8
2017-Apr-12 12:57N 54°08' E 000°20'  
Track history (hours):
 
Tides and Currents Weather Stations Pressure Air Temp Water Temp Dewpoint Dewpoint Depression Visibility Wind Speed Wind Dir Waves Ship Positions

Sea Thames

Last reported at 2017-Apr-22 08:31 UTC. Time now 2017-Apr-24 15:23 UTC.
Position N 46°27' W 004°45'.

Length 87 m; draft 4 m.

Type: Cargo ship. MMSI: 304933000.

Date/timePositionNaut miles runAvg speedWind from/ knotsBaromVisibWave heightAir tempDewpointWater temp
2017-Apr-22 08:31N 46°27' W 004°45'1 8.6
2017-Apr-22 08:27N 46°27' W 004°45'4 8.5
2017-Apr-22 08:00N 46°31' W 004°47'4 8.6
2017-Apr-22 07:30N 46°35' W 004°49'4 8.7
2017-Apr-22 07:00N 46°39' W 004°51'4 8.5
2017-Apr-22 06:31N 46°43' W 004°53'4 8.6
2017-Apr-22 06:00N 46°47' W 004°56'4 8.6
2017-Apr-22 05:30N 46°51' W 004°58'4 8.9
2017-Apr-22 05:00N 46°55' W 005°00'4 8.9
2017-Apr-22 04:30N 46°59' W 005°03'15 9.0
2017-Apr-22 02:52N 47°13' W 005°11'22 9.3
2017-Apr-22 00:30N 47°34' W 005°22'8 9.1
2017-Apr-21 23:39N 47°41' W 005°25'4 8.9
2017-Apr-21 23:12N 47°45' W 005°27'2 8.8
2017-Apr-21 23:00N 47°46' W 005°28'9 8.4
2017-Apr-21 21:53N 47°55' W 005°33'8 8.3
2017-Apr-21 20:56N 48°03' W 005°37'28 8.6
2017-Apr-21 17:38N 48°29' W 005°54'9 9.3
2017-Apr-21 16:38N 48°38' W 005°56'4 9.2
2017-Apr-21 16:11N 48°42' W 005°55'5 9.6
2017-Apr-21 15:38N 48°47' W 005°51'3 9.4
2017-Apr-21 15:16N 48°50' W 005°49'4 9.3
2017-Apr-21 14:53N 48°53' W 005°46'7 9.2
2017-Apr-21 14:07N 48°57' W 005°38'106 9.1
2017-Apr-21 02:26N 49°51' W 003°18'4 8.6
2017-Apr-21 02:00N 49°53' W 003°13'7 8.6
2017-Apr-21 01:11N 49°57' W 003°04'4 8.7
2017-Apr-21 00:46N 49°59' W 002°59'3 8.8
2017-Apr-21 00:27N 50°00' W 002°55'104 9.3
2017-Apr-20 13:18N 50°28' W 000°19'2 8.3
2017-Apr-20 13:00N 50°29' W 000°15'4 8.5
2017-Apr-20 12:30N 50°30' W 000°09'4 8.8
2017-Apr-20 12:00N 50°31' W 000°02'5 9.1
2017-Apr-20 11:31N 50°33' E 000°04'5 9.3
2017-Apr-20 11:00N 50°34' E 000°12'5 9.6
2017-Apr-20 10:30N 50°35' E 000°19'5 9.8
2017-Apr-20 10:00N 50°37' E 000°26'5 9.8
2017-Apr-20 09:30N 50°38' E 000°33'5 9.7
2017-Apr-20 09:01N 50°41' E 000°40'5 9.5
2017-Apr-20 08:29N 50°44' E 000°46'21 8.8
2017-Apr-20 06:06N 50°57' E 001°12'1 8.2
2017-Apr-20 06:00N 50°57' E 001°13'4 7.9
2017-Apr-20 05:28N 50°60' E 001°19'4 7.7
2017-Apr-20 05:00N 51°02' E 001°23'4 7.8
2017-Apr-20 04:30N 51°05' E 001°28'4 8.4
2017-Apr-20 04:00N 51°07' E 001°33'4 8.9
2017-Apr-20 03:31N 51°10' E 001°38'5 9.1
2017-Apr-20 03:00N 51°13' E 001°44'5 9.5
2017-Apr-20 02:30N 51°17' E 001°47'510.1
2017-Apr-20 02:01N 51°22' E 001°51'510.2
2017-Apr-20 01:31N 51°26' E 001°56'510.1
2017-Apr-20 01:00N 51°30' E 002°01'261 8.3
2017-Apr-18 17:25N 53°51' E 008°03'4 9.6
2017-Apr-18 16:59N 53°48' E 008°08'5 9.3
2017-Apr-18 16:30N 53°45' E 008°13'4 8.3
2017-Apr-18 16:00N 53°42' E 008°19'4 7.6
2017-Apr-18 15:30N 53°40' E 008°24'4 7.1
2017-Apr-18 15:00N 53°37' E 008°28'3 6.9
2017-Apr-18 14:30N 53°35' E 008°32'5 5.0
2017-Apr-18 13:30N 53°30' E 008°30'3 6.0
2017-Apr-18 13:00N 53°27' E 008°29'3 6.7
2017-Apr-18 12:30N 53°23' E 008°30'2 3.8
2017-Apr-18 11:58N 53°21' E 008°30'0 0.0
2017-Apr-18 11:11N 53°21' E 008°30'0 0.0
2017-Apr-18 10:59N 53°21' E 008°30'0 0.0
2017-Apr-18 10:29N 53°21' E 008°30'0 0.0
2017-Apr-18 09:58N 53°21' E 008°30'0 0.0
2017-Apr-18 09:29N 53°21' E 008°30'0 0.0
2017-Apr-18 08:59N 53°21' E 008°30'0 0.0
2017-Apr-18 08:28N 53°21' E 008°30'0 0.0
2017-Apr-18 07:58N 53°21' E 008°30'0 0.0
2017-Apr-18 07:29N 53°21' E 008°30'0 0.0
2017-Apr-18 06:59N 53°21' E 008°30'0 0.0
2017-Apr-18 06:28N 53°21' E 008°30'0 0.0
2017-Apr-18 06:00N 53°21' E 008°30'0 0.0
2017-Apr-18 05:24N 53°21' E 008°30'0 0.0
2017-Apr-18 04:57N 53°21' E 008°30'0 0.0
2017-Apr-18 04:25N 53°21' E 008°30'0 0.0
2017-Apr-18 03:58N 53°21' E 008°30'0 0.0
2017-Apr-18 03:23N 53°21' E 008°30'0 0.0
2017-Apr-18 02:59N 53°21' E 008°30'0 0.0
2017-Apr-18 02:29N 53°21' E 008°30'0 0.0
2017-Apr-18 02:00N 53°21' E 008°30'0 0.0
2017-Apr-18 01:30N 53°21' E 008°30'0 0.0
2017-Apr-18 00:56N 53°21' E 008°30'0 0.0
2017-Apr-18 00:29N 53°21' E 008°30'0 0.0
2017-Apr-17 23:59N 53°21' E 008°30'0 0.0
2017-Apr-17 23:28N 53°21' E 008°30'0 0.0
2017-Apr-17 22:58N 53°21' E 008°30'0 0.0
2017-Apr-17 22:23N 53°21' E 008°30'0 0.0
2017-Apr-17 21:59N 53°21' E 008°30'0 0.0
2017-Apr-17 21:29N 53°21' E 008°30'0 0.0
2017-Apr-17 20:57N 53°21' E 008°30'0 0.0
2017-Apr-17 20:29N 53°21' E 008°30'0 0.0
2017-Apr-17 19:58N 53°21' E 008°30'0 0.0
2017-Apr-17 19:29N 53°21' E 008°30'0 0.0
2017-Apr-17 18:56N 53°21' E 008°30'0 0.0
2017-Apr-17 18:29N 53°21' E 008°30'0 0.0
2017-Apr-17 17:55N 53°21' E 008°30'0 0.0
2017-Apr-17 17:28N 53°21' E 008°30'0 0.0
2017-Apr-17 17:00N 53°21' E 008°30'0 0.0
2017-Apr-17 16:28N 53°21' E 008°30'0 0.0
2017-Apr-17 15:55N 53°21' E 008°30'0 0.0
2017-Apr-17 15:30N 53°21' E 008°30'0 0.0
2017-Apr-17 14:58N 53°21' E 008°30'0 0.0
2017-Apr-17 14:30N 53°21' E 008°30'0 0.0
2017-Apr-17 13:29N 53°21' E 008°30'0 0.0
2017-Apr-17 12:57N 53°21' E 008°30'0 0.0
2017-Apr-17 12:27N 53°21' E 008°30'0 0.0
2017-Apr-17 12:00N 53°21' E 008°30'0 0.0
2017-Apr-17 11:31N 53°21' E 008°30'0 0.4
2017-Apr-17 11:00N 53°22' E 008°30'4 8.3
2017-Apr-17 10:30N 53°26' E 008°29'4 7.8
2017-Apr-17 10:00N 53°30' E 008°30'4 7.1
2017-Apr-17 09:30N 53°32' E 008°34'4 7.2
2017-Apr-17 09:00N 53°35' E 008°31'3 6.6
2017-Apr-17 08:30N 53°38' E 008°27'4 7.1
2017-Apr-17 08:00N 53°40' E 008°23'3 5.2
2017-Apr-17 07:30N 53°42' E 008°20'3 6.3
2017-Apr-17 07:00N 53°44' E 008°15'3 6.0
2017-Apr-17 06:30N 53°45' E 008°11'3 5.2
2017-Apr-17 06:00N 53°47' E 008°08'3 5.7
2017-Apr-17 05:30N 53°50' E 008°05'107 7.9
2017-Apr-16 15:59N 54°38' E 005°22'4 7.9
2017-Apr-16 15:29N 54°39' E 005°15'4 7.9
2017-Apr-16 14:59N 54°40' E 005°09'4 8.1
2017-Apr-16 14:30N 54°41' E 005°02'249 8.4
2017-Apr-15 08:47N 55°59' W 001°53'3 8.7
2017-Apr-15 08:29N 56°00' W 001°57'4 8.7
2017-Apr-15 08:00N 56°01' W 002°05'4 8.9
2017-Apr-15 07:30N 56°03' W 002°12'5 9.2
2017-Apr-15 07:00N 56°04' W 002°20'5 9.2
2017-Apr-15 06:30N 56°06' W 002°28'5 9.6
2017-Apr-15 06:00N 56°06' W 002°36'5 9.5
2017-Apr-15 05:30N 56°06' W 002°45'4 8.9
2017-Apr-15 05:00N 56°05' W 002°53'4 8.5
2017-Apr-15 04:30N 56°05' W 003°00'4 7.5
2017-Apr-15 04:00N 56°05' W 003°07'2 3.8
2017-Apr-15 03:29N 56°07' W 003°09'0 0.0
2017-Apr-15 02:58N 56°07' W 003°09'0 0.0
2017-Apr-15 02:20N 56°07' W 003°09'0 0.0
2017-Apr-15 01:56N 56°07' W 003°09'0 0.0
2017-Apr-15 01:26N 56°07' W 003°09'0 0.0
2017-Apr-15 00:58N 56°07' W 003°09'0 0.0
2017-Apr-15 00:21N 56°07' W 003°09'0 0.0
2017-Apr-14 23:57N 56°07' W 003°09'0 0.0
2017-Apr-14 23:27N 56°07' W 003°09'0 0.0
2017-Apr-14 22:57N 56°07' W 003°09'0 0.0
2017-Apr-14 22:23N 56°07' W 003°09'0 0.0
2017-Apr-14 21:59N 56°07' W 003°09'0 0.0
2017-Apr-14 21:23N 56°07' W 003°09'0 0.0
2017-Apr-14 20:53N 56°07' W 003°09'0 0.0
2017-Apr-14 20:29N 56°07' W 003°09'0 0.0
2017-Apr-14 19:59N 56°07' W 003°09'0 0.0
2017-Apr-14 19:23N 56°07' W 003°09'0 0.0
2017-Apr-14 18:59N 56°07' W 003°09'0 0.0
2017-Apr-14 18:28N 56°07' W 003°09'0 0.0
2017-Apr-14 17:46N 56°07' W 003°09'0 0.0
2017-Apr-14 17:28N 56°07' W 003°09'0 0.0
2017-Apr-14 16:58N 56°07' W 003°09'0 0.0
2017-Apr-14 16:28N 56°07' W 003°09'0 0.0
2017-Apr-14 15:52N 56°07' W 003°09'0 0.0
2017-Apr-14 15:28N 56°07' W 003°09'0 0.0
2017-Apr-14 14:58N 56°07' W 003°09'0 0.0
2017-Apr-14 14:26N 56°07' W 003°09'0 0.0
2017-Apr-14 13:13N 56°07' W 003°09'0 0.0
2017-Apr-14 12:55N 56°07' W 003°09'0 0.0
2017-Apr-14 12:25N 56°07' W 003°09'0 0.0
2017-Apr-14 11:55N 56°07' W 003°09'0 0.0
2017-Apr-14 11:28N 56°07' W 003°09'0 0.0
2017-Apr-14 10:57N 56°07' W 003°09'0 0.0
2017-Apr-14 10:27N 56°07' W 003°09'0 0.0
2017-Apr-14 09:57N 56°07' W 003°09'0 0.0
2017-Apr-14 09:21N 56°07' W 003°09'0 0.0
2017-Apr-14 08:57N 56°07' W 003°09'0 0.0
2017-Apr-14 08:26N 56°07' W 003°09'0 0.0
2017-Apr-14 07:44N 56°07' W 003°09'0 0.0
2017-Apr-14 07:20N 56°07' W 003°09'0 0.0
2017-Apr-14 06:56N 56°07' W 003°09'0 0.0
2017-Apr-14 06:20N 56°07' W 003°09'0 0.0
2017-Apr-14 05:50N 56°07' W 003°09'0 0.0
2017-Apr-14 05:26N 56°07' W 003°09'0 0.0
2017-Apr-14 04:56N 56°07' W 003°09'0 0.0
2017-Apr-14 04:14N 56°07' W 003°09'0 0.0
2017-Apr-14 03:50N 56°07' W 003°09'0 0.0
2017-Apr-14 03:26N 56°07' W 003°09'0 0.0
2017-Apr-14 02:55N 56°07' W 003°09'0 0.0
2017-Apr-14 02:25N 56°07' W 003°09'0 0.0
2017-Apr-14 01:49N 56°07' W 003°09'0 0.0
2017-Apr-14 01:25N 56°07' W 003°09'0 0.0
2017-Apr-14 00:55N 56°07' W 003°09'0 0.0
2017-Apr-14 00:25N 56°07' W 003°09'0 0.0
2017-Apr-13 23:49N 56°07' W 003°09'0 0.0
2017-Apr-13 23:25N 56°07' W 003°09'0 0.0
2017-Apr-13 22:55N 56°07' W 003°09'0 0.0
2017-Apr-13 22:25N 56°07' W 003°09'0 0.0
2017-Apr-13 22:00N 56°07' W 003°09'0 0.0
2017-Apr-13 21:30N 56°07' W 003°09'0 0.0
2017-Apr-13 21:00N 56°07' W 003°09'0 0.0
2017-Apr-13 20:30N 56°07' W 003°09'0 0.0
2017-Apr-13 20:00N 56°07' W 003°09'0 0.0
2017-Apr-13 19:30N 56°07' W 003°09'0 0.0
2017-Apr-13 18:48N 56°07' W 003°09'0 0.0
2017-Apr-13 18:30N 56°07' W 003°09'0 0.0
2017-Apr-13 17:54N 56°07' W 003°09'0 0.0
2017-Apr-13 17:30N 56°07' W 003°09'0 0.0
2017-Apr-13 17:00N 56°07' W 003°09'0 0.0
2017-Apr-13 16:30N 56°07' W 003°09'0 0.0
2017-Apr-13 16:00N 56°07' W 003°09'0 0.2
2017-Apr-13 15:30N 56°07' W 003°09'1 1.8
2017-Apr-13 15:00N 56°06' W 003°08'3 5.4
2017-Apr-13 14:30N 56°06' W 003°03'7 6.6
2017-Apr-13 13:30N 56°06' W 002°51'1 2.3
2017-Apr-13 13:00N 56°06' W 002°49'1 2.2
2017-Apr-13 12:30N 56°06' W 002°47'1 2.2
2017-Apr-13 12:00N 56°06' W 002°45'1 2.1
2017-Apr-13 11:30N 56°06' W 002°43'1 2.2
2017-Apr-13 11:00N 56°06' W 002°41'1 1.7
2017-Apr-13 10:30N 56°06' W 002°40'1 2.0
2017-Apr-13 10:00N 56°06' W 002°38'3 6.8
2017-Apr-13 09:30N 56°06' W 002°32'4 7.6
2017-Apr-13 09:00N 56°04' W 002°26'4 7.5
2017-Apr-13 08:30N 56°03' W 002°20'4 7.6
2017-Apr-13 08:00N 56°01' W 002°14'4 7.6
2017-Apr-13 07:30N 55°59' W 002°08'8 6.8
2017-Apr-13 06:20N 55°56' W 001°55'3 6.6
2017-Apr-13 05:52N 55°54' W 001°50'28 6.8
2017-Apr-13 01:45N 55°34' W 001°16'3 7.5
2017-Apr-13 01:25N 55°32' W 001°14'66 8.2
2017-Apr-12 17:28N 54°37' W 000°12'3 7.2
2017-Apr-12 17:00N 54°34' W 000°09'4 7.0
2017-Apr-12 16:30N 54°31' W 000°05'3 7.0
2017-Apr-12 16:00N 54°28' W 000°02'4 7.0
2017-Apr-12 15:30N 54°25' E 000°01'4 7.3
2017-Apr-12 15:00N 54°22' E 000°04'8 7.8
2017-Apr-12 13:59N 54°15' E 000°12'4 8.5
2017-Apr-12 13:29N 54°12' E 000°16'5 8.8
2017-Apr-12 12:57N 54°08' E 000°20'  

Dump ship's entire track history